Time;durP1;ratioP1;P1;durP2;ratioP2;P2;SDS_P1;SDS_P2;PMS_P1;PMS_P2;Temp;Humidity;BMP_temperature;BMP_pressure;BME280_temperature;BME280_humidity;BME280_pressure;Samples;Min_cycle;Max_cycle;Signal;HPM_P1;HPM_P2
2022/05/13 00:00:13;;;;;;;1999.90;999.90;;;11.30;99.90;;;;;;5030864;28;20467;-69
2022/05/13 00:02:41;;;;;;;1999.90;999.90;;;11.00;99.90;;;;;;5026099;28;20447;-72
2022/05/13 00:05:10;;;;;;;1999.90;999.90;;;11.00;99.90;;;;;;5031412;28;20467;-70
2022/05/13 00:07:37;;;;;;;1999.90;999.90;;;11.10;99.90;;;;;;5032793;28;20459;-71
2022/05/13 00:10:06;;;;;;;1999.90;999.90;;;11.30;99.90;;;;;;5031700;28;20875;-70
2022/05/13 00:12:35;;;;;;;1999.90;999.90;;;11.30;99.90;;;;;;5013968;28;20510;-70
2022/05/13 00:15:04;;;;;;;1999.90;999.90;;;11.40;99.90;;;;;;5029583;28;20513;-69
2022/05/13 00:17:31;;;;;;;1999.90;999.90;;;11.10;99.90;;;;;;5036170;28;20476;-70
2022/05/13 00:19:57;;;;;;;1999.90;999.90;;;11.10;99.90;;;;;;5028313;28;20467;-71
2022/05/13 00:22:26;;;;;;;1999.90;999.90;;;10.90;99.90;;;;;;5034378;28;20454;-68
2022/05/13 00:24:54;;;;;;;1999.90;999.90;;;10.80;99.90;;;;;;5031632;28;20542;-69
2022/05/13 00:27:21;;;;;;;1999.90;999.90;;;10.80;99.90;;;;;;5026008;28;20467;-71
2022/05/13 00:29:48;;;;;;;1999.90;999.90;;;10.70;99.90;;;;;;5026272;28;20463;-71
2022/05/13 00:32:14;;;;;;;1999.90;999.90;;;10.60;99.90;;;;;;5030343;28;20471;-71
2022/05/13 00:34:41;;;;;;;1999.90;999.90;;;10.40;99.90;;;;;;5033858;28;20904;-68
2022/05/13 00:37:08;;;;;;;1999.90;999.90;;;10.30;99.90;;;;;;5034493;28;20999;-70
2022/05/13 00:39:37;;;;;;;1999.90;999.90;;;10.30;99.90;;;;;;5033228;28;20466;-69
2022/05/13 00:42:09;;;;;;;1999.90;999.90;;;10.40;99.90;;;;;;5027466;28;20443;-70
2022/05/13 00:44:36;;;;;;;1999.90;999.90;;;10.50;99.90;;;;;;5018073;28;20525;-70
2022/05/13 00:47:03;;;;;;;1999.90;999.90;;;10.70;99.90;;;;;;5034813;28;20505;-70
2022/05/13 00:49:32;;;;;;;1999.90;999.90;;;10.60;99.90;;;;;;5034878;28;20447;-69
2022/05/13 00:51:59;;;;;;;1999.90;999.90;;;10.60;99.90;;;;;;5027078;28;20450;-70
2022/05/13 00:54:26;;;;;;;1999.90;999.90;;;10.60;99.90;;;;;;5034234;28;20447;-71
2022/05/13 00:56:54;;;;;;;1999.90;999.90;;;10.60;99.90;;;;;;5032580;28;20487;-71
2022/05/13 00:59:25;;;;;;;1999.90;999.90;;;10.50;99.90;;;;;;5025578;28;20451;-67
2022/05/13 01:01:52;;;;;;;1999.90;999.90;;;10.50;99.90;;;;;;5034445;28;20443;-70
2022/05/13 01:04:20;;;;;;;1999.90;999.90;;;10.40;99.90;;;;;;5034170;28;20448;-67
2022/05/13 01:06:53;;;;;;;1999.90;999.90;;;10.40;99.90;;;;;;5034983;28;20984;-70
2022/05/13 01:09:21;;;;;;;1999.90;999.90;;;10.50;99.90;;;;;;5035289;28;20440;-70
2022/05/13 01:11:52;;;;;;;1999.90;999.90;;;10.60;99.90;;;;;;5026317;28;20451;-71
2022/05/13 01:14:24;;;;;;;1999.90;999.90;;;10.60;99.90;;;;;;5035112;28;20467;-71
2022/05/13 01:19:35;;;;;;;1999.90;999.90;;;10.60;99.90;;;;;;5018853;28;20490;-70
2022/05/13 01:22:14;;;;;;;1999.90;999.90;;;10.60;99.90;;;;;;5030737;28;20512;-70
2022/05/13 01:24:41;;;;;;;1999.90;999.90;;;10.60;99.90;;;;;;5016315;28;20511;-69
2022/05/13 01:27:08;;;;;;;1999.90;999.90;;;10.60;99.90;;;;;;5034874;28;21019;-68
2022/05/13 01:29:35;;;;;;;1999.90;999.90;;;10.50;99.90;;;;;;5034697;28;20454;-69
2022/05/13 01:32:01;;;;;;;1999.90;999.90;;;10.50;99.90;;;;;;5030841;28;20566;-69
2022/05/13 01:34:28;;;;;;;1999.90;999.90;;;10.50;99.90;;;;;;5034371;28;20451;-70
2022/05/13 01:36:55;;;;;;;1999.90;999.90;;;10.40;99.90;;;;;;5034616;28;20991;-69
2022/05/13 01:39:23;;;;;;;1999.90;999.90;;;10.40;99.90;;;;;;5034721;28;20439;-69
2022/05/13 01:41:49;;;;;;;1999.90;999.90;;;10.40;99.90;;;;;;5034156;28;20534;-67
2022/05/13 01:44:16;;;;;;;1999.90;999.90;;;10.40;99.90;;;;;;5035466;28;20447;-68
2022/05/13 01:46:43;;;;;;;1999.90;999.90;;;10.30;99.90;;;;;;5033819;28;20495;-67
2022/05/13 01:49:10;;;;;;;1999.90;999.90;;;10.20;99.90;;;;;;5035496;28;20451;-72
2022/05/13 01:51:36;;;;;;;1999.90;999.90;;;10.00;99.90;;;;;;5026400;28;20942;-67
2022/05/13 01:54:03;;;;;;;1999.90;999.90;;;10.00;99.90;;;;;;5034907;28;20497;-67
2022/05/13 01:56:31;;;;;;;1999.90;999.90;;;9.90;99.90;;;;;;5025120;28;20491;-67
2022/05/13 01:58:58;;;;;;;1999.90;999.90;;;10.00;99.90;;;;;;5034100;28;20447;-70
2022/05/13 02:01:24;;;;;;;1999.90;999.90;;;10.00;99.90;;;;;;5026297;28;20468;-67
2022/05/13 02:03:51;;;;;;;1999.90;999.90;;;9.80;99.90;;;;;;5035063;28;20451;-70
2022/05/13 02:06:22;;;;;;;1999.90;999.90;;;9.50;99.90;;;;;;5028127;28;20947;-69
2022/05/13 02:08:51;;;;;;;1999.90;999.90;;;9.40;99.90;;;;;;5027169;28;20463;-69
2022/05/13 02:11:19;;;;;;;1999.90;999.90;;;9.20;99.90;;;;;;5026986;28;20451;-70
2022/05/13 02:13:49;;;;;;;1999.90;999.90;;;9.10;99.90;;;;;;5033374;28;20521;-69
2022/05/13 02:16:16;;;;;;;1999.90;999.90;;;9.20;99.90;;;;;;5032663;28;20505;-67
2022/05/13 02:18:43;;;;;;;1999.90;999.90;;;9.20;99.90;;;;;;5033793;28;20550;-70
2022/05/13 02:21:10;;;;;;;1999.90;999.90;;;9.10;99.90;;;;;;5026678;28;20468;-69
2022/05/13 02:23:37;;;;;;;1999.90;999.90;;;9.00;99.90;;;;;;5033718;28;20949;-69
2022/05/13 02:26:05;;;;;;;1999.90;999.90;;;9.10;99.90;;;;;;5030021;28;20487;-67
2022/05/13 02:28:34;;;;;;;1999.90;999.90;;;9.30;99.90;;;;;;5026099;28;20827;-67
2022/05/13 02:31:02;;;;;;;1999.90;999.90;;;9.50;99.90;;;;;;5025669;28;20447;-69
2022/05/13 02:33:30;;;;;;;1999.90;999.90;;;9.70;99.90;;;;;;5032703;28;20451;-70
2022/05/13 02:35:59;;;;;;;1999.90;999.90;;;9.90;99.90;;;;;;5031307;28;20481;-70
2022/05/13 02:38:26;;;;;;;1999.90;999.90;;;10.00;99.90;;;;;;5033162;28;21011;-71
2022/05/13 02:43:36;;;;;;;1999.90;999.90;;;10.00;99.90;;;;;;5020412;28;20950;-72
2022/05/13 02:46:05;;;;;;;1999.90;999.90;;;10.00;99.90;;;;;;5031943;28;21036;-70
2022/05/13 02:48:32;;;;;;;1999.90;999.90;;;10.00;99.90;;;;;;5033721;28;20451;-70
2022/05/13 02:50:59;;;;;;;1999.90;999.90;;;10.00;99.90;;;;;;5024588;28;20463;-70
2022/05/13 02:53:26;;;;;;;1999.90;999.90;;;10.00;99.90;;;;;;5032163;28;20514;-70
2022/05/13 02:55:53;;;;;;;1999.90;999.90;;;10.20;99.90;;;;;;5032279;28;20552;-70
2022/05/13 02:58:20;;;;;;;1999.90;999.90;;;10.40;99.90;;;;;;5032210;28;20880;-70
2022/05/13 03:00:46;;;;;;;1999.90;999.90;;;10.40;99.90;;;;;;5027253;28;20456;-70
2022/05/13 03:03:15;;;;;;;1999.90;999.90;;;10.40;99.90;;;;;;5030276;28;20439;-70
2022/05/13 03:05:41;;;;;;;1999.90;999.90;;;10.30;99.90;;;;;;5032208;28;20507;-69
2022/05/13 03:08:08;;;;;;;1999.90;999.90;;;10.00;99.90;;;;;;5033106;28;20451;-71
2022/05/13 03:10:37;;;;;;;1999.90;999.90;;;10.00;99.90;;;;;;5032431;28;20471;-70
2022/05/13 03:13:05;;;;;;;1999.90;999.90;;;10.00;99.90;;;;;;5032847;28;20525;-70
2022/05/13 03:15:33;;;;;;;1999.90;999.90;;;10.00;99.90;;;;;;5031954;28;20459;-70
2022/05/13 03:17:59;;;;;;;1999.90;999.90;;;10.00;99.90;;;;;;5028397;28;21013;-70
2022/05/13 03:20:28;;;;;;;1999.90;999.90;;;10.10;99.90;;;;;;5031506;28;20475;-70
2022/05/13 03:22:54;;;;;;;1999.90;999.90;;;10.10;99.90;;;;;;5032303;28;20439;-71
2022/05/13 03:25:22;;;;;;;1999.90;999.90;;;10.20;99.90;;;;;;5030277;28;20474;-70
2022/05/13 03:27:49;;;;;;;1999.90;999.90;;;10.20;99.90;;;;;;5033166;28;20466;-70
2022/05/13 03:30:19;;;;;;;1999.90;999.90;;;10.30;99.90;;;;;;5030730;28;20463;-69
2022/05/13 03:32:46;;;;;;;1999.90;999.90;;;10.30;99.90;;;;;;5026290;28;20490;-69
2022/05/13 03:35:15;;;;;;;1999.90;999.90;;;10.30;99.90;;;;;;5024139;28;20509;-68
2022/05/13 03:37:43;;;;;;;1999.90;999.90;;;10.30;99.90;;;;;;5031783;28;20840;-71
2022/05/13 03:40:13;;;;;;;1999.90;999.90;;;10.30;99.90;;;;;;5023141;28;20462;-70
2022/05/13 03:42:40;;;;;;;1999.90;999.90;;;10.40;99.90;;;;;;5024392;28;20850;-70
2022/05/13 03:45:09;;;;;;;1999.90;999.90;;;10.50;99.90;;;;;;5029142;28;20452;-70
2022/05/13 03:47:35;;;;;;;1999.90;999.90;;;10.50;99.90;;;;;;5015367;28;21058;-67
2022/05/13 03:50:03;;;;;;;1999.90;999.90;;;10.50;99.90;;;;;;5027429;28;20525;-68
2022/05/13 03:52:30;;;;;;;1999.90;999.90;;;10.50;99.90;;;;;;5036699;28;20530;-68
2022/05/13 03:54:58;;;;;;;1999.90;999.90;;;10.50;99.90;;;;;;5027253;28;20462;-70
2022/05/13 03:57:25;;;;;;;1999.90;999.90;;;10.70;99.90;;;;;;5035617;28;20493;-69
2022/05/13 03:59:53;;;;;;;1999.90;999.90;;;10.90;99.90;;;;;;5034821;28;20443;-70
2022/05/13 04:02:20;;;;;;;1999.90;999.90;;;11.00;99.90;;;;;;5035774;28;20950;-70
2022/05/13 04:10:17;;;;;;;1999.90;999.90;;;11.30;99.90;;;;;;5032971;28;20450;-70
2022/05/13 04:18:12;;;;;;;1999.90;999.90;;;11.80;99.90;;;;;;5033010;28;20513;-68
2022/05/13 04:20:39;;;;;;;1999.90;999.90;;;12.10;99.90;;;;;;5029551;28;20495;-68
2022/05/13 04:23:06;;;;;;;1999.90;999.90;;;11.90;99.90;;;;;;5029788;28;20452;-69
2022/05/13 04:25:34;;;;;;;1999.90;999.90;;;11.90;99.90;;;;;;5034360;28;20443;-70
2022/05/13 04:28:01;;;;;;;1999.90;999.90;;;11.80;99.90;;;;;;5033898;28;20497;-70
2022/05/13 04:30:27;;;;;;;1999.90;999.90;;;11.70;99.90;;;;;;5031992;28;20577;-70
2022/05/13 04:32:54;;;;;;;1999.90;999.90;;;11.90;99.90;;;;;;5035611;28;20998;-70
2022/05/13 04:35:21;;;;;;;1999.90;999.90;;;12.10;99.90;;;;;;5034483;28;20466;-71
2022/05/13 04:37:47;;;;;;;1999.90;999.90;;;12.40;99.90;;;;;;5034484;28;20483;-71
2022/05/13 04:40:14;;;;;;;1999.90;999.90;;;12.50;99.90;;;;;;5031704;28;20459;-70
2022/05/13 04:42:50;;;;;;;1999.90;999.90;;;12.50;99.90;;;;;;5028729;28;20442;-67
2022/05/13 04:45:23;;;;;;;1999.90;999.90;;;12.60;99.90;;;;;;5032902;28;20465;-69
2022/05/13 04:50:39;;;;;;;1999.90;999.90;;;12.90;99.90;;;;;;5056900;28;20426;-66
2022/05/13 04:53:07;;;;;;;1999.90;999.90;;;13.20;99.90;;;;;;5046096;28;20554;-66
2022/05/13 04:55:34;;;;;;;1999.90;999.90;;;13.60;99.90;;;;;;5053728;28;20434;-65
2022/05/13 04:58:03;;;;;;;1999.90;999.90;;;13.50;99.90;;;;;;5036564;28;20545;-67
2022/05/13 05:00:30;;;;;;;1999.90;999.90;;;13.60;99.90;;;;;;5041288;28;20456;-66
2022/05/13 05:02:57;;;;;;;1999.90;999.90;;;13.70;99.90;;;;;;5032577;28;20468;-66
2022/05/13 05:05:24;;;;;;;1999.90;999.90;;;13.90;99.90;;;;;;5041448;28;20450;-66
2022/05/13 05:07:50;;;;;;;1999.90;999.90;;;14.10;99.90;;;;;;5032236;28;20545;-65
2022/05/13 05:10:21;;;;;;;1999.90;999.90;;;14.00;99.90;;;;;;5042781;28;20451;-66
2022/05/13 05:12:47;;;;;;;1999.90;999.90;;;14.30;99.90;;;;;;5049281;28;20541;-66
2022/05/13 05:15:15;;;;;;;1999.90;999.90;;;14.40;99.90;;;;;;5041510;28;20474;-66
2022/05/13 05:17:42;;;;;;;1999.90;999.90;;;14.60;99.90;;;;;;5032353;28;20483;-66
2022/05/13 05:20:09;;;;;;;1999.90;999.90;;;14.70;99.90;;;;;;5041767;28;20472;-66
2022/05/13 05:22:37;;;;;;;1999.90;999.90;;;14.90;99.90;;;;;;5051139;28;20450;-65
2022/05/13 05:25:04;;;;;;;1999.90;999.90;;;15.20;99.90;;;;;;5031138;28;20474;-66
2022/05/13 05:27:35;;;;;;;1999.90;999.90;;;15.30;99.90;;;;;;5050538;28;20532;-63
2022/05/13 05:30:02;;;;;;;1999.90;999.90;;;15.50;99.90;;;;;;5039683;28;20822;-66
2022/05/13 05:32:30;;;;;;;1999.90;999.90;;;15.80;99.90;;;;;;5050727;28;20504;-66
2022/05/13 05:34:56;;;;;;;1999.90;999.90;;;15.80;99.90;;;;;;5038993;28;20459;-65
2022/05/13 05:37:23;;;;;;;1999.90;999.90;;;15.90;99.90;;;;;;5050377;28;20520;-66
2022/05/13 05:39:49;;;;;;;1999.90;999.90;;;16.00;99.90;;;;;;5027554;28;20475;-65
2022/05/13 05:42:16;;;;;;;1999.90;999.90;;;15.60;99.90;;;;;;5040861;28;20446;-67
2022/05/13 05:44:43;;;;;;;1999.90;999.90;;;15.50;99.90;;;;;;5032559;28;21001;-66
2022/05/13 05:47:09;;;;;;;1999.90;999.90;;;15.50;99.90;;;;;;5038970;28;20616;-65
2022/05/13 05:49:37;;;;;;;1999.90;999.90;;;15.60;99.90;;;;;;5044842;28;20438;-66
2022/05/13 05:52:05;;;;;;;1999.90;999.90;;;15.90;99.90;;;;;;5040810;28;20875;-66
2022/05/13 05:57:15;;;;;;;1999.90;999.90;;;15.80;99.90;;;;;;5034500;28;20925;-66
2022/05/13 05:59:43;;;;;;;1999.90;999.90;;;16.10;99.90;;;;;;5038214;28;20475;-66
2022/05/13 06:02:11;;;;;;;1999.90;999.90;;;16.30;99.90;;;;;;5040301;28;20447;-66
2022/05/13 06:04:39;;;;;;;1999.90;999.90;;;16.40;99.90;;;;;;5030012;28;20459;-66
2022/05/13 06:07:07;;;;;;;1999.90;999.90;;;16.50;99.90;;;;;;5040662;28;20471;-67
2022/05/13 06:09:34;;;;;;;1999.90;999.90;;;16.50;99.90;;;;;;5030279;28;20463;-66
2022/05/13 06:12:01;;;;;;;1999.90;999.90;;;16.80;99.90;;;;;;5039822;28;20872;-66
2022/05/13 06:14:28;;;;;;;1999.90;999.90;;;17.40;99.90;;;;;;5029283;28;20467;-67
2022/05/13 06:16:55;;;;;;;1999.90;999.90;;;17.90;99.90;;;;;;5040559;28;20542;-66
2022/05/13 06:19:22;;;;;;;1999.90;999.90;;;18.10;99.90;;;;;;5028481;28;20494;-66
2022/05/13 06:21:51;;;;;;;1999.90;999.90;;;17.90;99.80;;;;;;5038834;28;20439;-64
2022/05/13 06:24:18;;;;;;;1999.90;999.90;;;17.80;99.90;;;;;;5040914;28;20460;-64
2022/05/13 06:26:46;;;;;;;1999.90;999.90;;;17.30;99.90;;;;;;5039252;28;20569;-67
2022/05/13 06:29:13;;;;;;;1999.90;999.90;;;17.20;99.90;;;;;;5040373;28;20461;-66
2022/05/13 06:31:40;;;;;;;1999.90;999.90;;;17.10;99.90;;;;;;5041236;28;20518;-67
2022/05/13 06:34:06;;;;;;;1999.90;999.90;;;17.50;99.90;;;;;;5036687;28;20471;-64
2022/05/13 06:36:33;;;;;;;1999.90;999.90;;;17.90;99.90;;;;;;5039561;28;20514;-63
2022/05/13 06:39:02;;;;;;;1999.90;999.90;;;18.10;99.60;;;;;;5037167;28;20501;-63
2022/05/13 06:41:29;;;;;;;1999.90;999.90;;;18.20;99.40;;;;;;5039871;28;20447;-62
2022/05/13 06:43:55;;;;;;;1999.90;999.90;;;18.20;98.30;;;;;;5029470;28;20484;-64
2022/05/13 06:46:22;;;;;;;1999.90;999.90;;;18.10;98.50;;;;;;5035155;28;20476;-63
2022/05/13 06:48:49;;;;;;;1999.90;999.90;;;17.90;98.50;;;;;;5039461;28;21001;-66
2022/05/13 06:51:17;;;;;;;1999.90;999.90;;;17.50;99.20;;;;;;5031716;28;20501;-66
2022/05/13 06:53:44;;;;;;;1999.90;999.90;;;17.20;99.70;;;;;;5030854;28;20451;-65
2022/05/13 06:56:12;;;;;;;1999.90;999.90;;;17.10;99.90;;;;;;5024208;28;21023;-66
2022/05/13 06:58:38;;;;;;;1999.90;999.90;;;17.10;99.90;;;;;;5032846;28;21073;-63
2022/05/13 07:01:05;;;;;;;1999.90;999.90;;;17.40;99.90;;;;;;5031330;28;21126;-64
2022/05/13 07:03:32;;;;;;;1999.90;999.90;;;17.80;99.70;;;;;;5024945;28;20451;-66
2022/05/13 07:05:58;;;;;;;1999.90;999.90;;;17.90;98.80;;;;;;5026085;28;20525;-66
2022/05/13 07:08:25;;;;;;;1999.90;999.90;;;18.00;97.90;;;;;;5041374;28;20684;-65
2022/05/13 07:10:52;;;;;;;1999.90;999.90;;;18.10;97.90;;;;;;5032240;28;20539;-64
2022/05/13 07:13:19;;;;;;;1999.90;999.90;;;18.30;97.40;;;;;;5030888;28;20486;-65
2022/05/13 07:15:46;;;;;;;1999.90;999.90;;;18.40;97.10;;;;;;5032975;28;20955;-65
2022/05/13 07:18:14;;;;;;;1999.90;999.90;;;18.10;96.20;;;;;;5039998;28;20481;-66
2022/05/13 07:20:41;;;;;;;1999.90;999.90;;;18.10;97.10;;;;;;5028991;28;20459;-66
2022/05/13 07:23:08;;;;;;;1999.90;999.90;;;17.90;97.10;;;;;;5037152;28;21407;-66
2022/05/13 07:25:35;;;;;;;1999.90;999.90;;;17.90;97.50;;;;;;5043153;28;20964;-66
2022/05/13 07:28:02;;;;;;;1999.90;999.90;;;17.80;97.60;;;;;;5037041;28;20483;-66
2022/05/13 07:30:30;;;;;;;1999.90;999.90;;;17.60;97.70;;;;;;5043944;28;20513;-68
2022/05/13 07:32:57;;;;;;;1999.90;999.90;;;17.10;98.00;;;;;;5030300;28;20495;-68
2022/05/13 07:35:23;;;;;;;1999.90;999.90;;;16.50;98.50;;;;;;5034953;28;20892;-68
2022/05/13 07:37:50;;;;;;;1999.90;999.90;;;16.30;99.10;;;;;;5046982;28;20466;-68
2022/05/13 07:43:03;;;;;;;1999.90;999.90;;;15.90;99.90;;;;;;5038123;28;20830;-68
2022/05/13 07:45:31;;;;;;;1999.90;999.90;;;16.00;99.90;;;;;;5041040;28;20466;-68
2022/05/13 07:47:57;;;;;;;1999.90;999.90;;;16.00;99.90;;;;;;5030694;28;20541;-68
2022/05/13 07:50:24;;;;;;;1999.90;999.90;;;15.90;99.90;;;;;;5042615;28;20459;-68
2022/05/13 07:52:51;;;;;;;1999.90;999.90;;;15.80;99.90;;;;;;5039851;28;20533;-69
2022/05/13 07:55:19;;;;;;;1999.90;999.90;;;16.00;99.90;;;;;;5042371;28;20466;-68
2022/05/13 07:57:47;;;;;;;1999.90;999.90;;;16.20;99.90;;;;;;5026220;28;20487;-68
2022/05/13 08:00:26;;;;;;;1999.90;999.90;;;16.20;99.90;;;;;;5030889;28;20496;-69
2022/05/13 08:02:55;;;;;;;1999.90;999.90;;;16.00;99.90;;;;;;5036036;28;20486;-68
2022/05/13 08:05:23;;;;;;;1999.90;999.90;;;15.80;99.90;;;;;;5030435;28;20512;-68
2022/05/13 08:07:57;;;;;;;1999.90;999.90;;;15.70;99.90;;;;;;5032971;28;21011;-67
2022/05/13 08:10:24;;;;;;;1999.90;999.90;;;15.70;99.90;;;;;;5039701;28;20512;-66
2022/05/13 08:12:51;;;;;;;1999.90;999.90;;;15.80;99.90;;;;;;5037620;28;20810;-67
2022/05/13 08:15:17;;;;;;;1999.90;999.90;;;15.70;99.90;;;;;;5028162;28;20486;-66
2022/05/13 08:17:44;;;;;;;1999.90;999.90;;;16.00;99.90;;;;;;5032957;28;20994;-66
2022/05/13 08:20:12;;;;;;;1999.90;999.90;;;16.10;99.90;;;;;;5030108;28;20491;-66
2022/05/13 08:22:39;;;;;;;1999.90;999.90;;;16.20;99.90;;;;;;5032021;28;20462;-67
2022/05/13 08:25:07;;;;;;;1999.90;999.90;;;16.20;99.90;;;;;;5029918;28;20534;-67
2022/05/13 08:27:34;;;;;;;1999.90;999.90;;;16.40;99.90;;;;;;5033575;28;20483;-66
2022/05/13 08:30:01;;;;;;;1999.90;999.90;;;16.70;99.90;;;;;;5029235;28;21025;-66
2022/05/13 08:32:28;;;;;;;1999.90;999.90;;;17.10;99.90;;;;;;5028216;28;20464;-66
2022/05/13 08:34:54;;;;;;;1999.90;999.90;;;17.30;99.90;;;;;;5030046;28;20488;-66
2022/05/13 08:37:22;;;;;;;1999.90;999.90;;;17.20;99.90;;;;;;5031646;28;20490;-66
2022/05/13 08:39:49;;;;;;;1999.90;999.90;;;17.60;99.90;;;;;;5038654;28;20487;-66
2022/05/13 08:42:22;;;;;;;1999.90;999.90;;;17.90;99.50;;;;;;5038428;28;20517;-66
2022/05/13 08:44:50;;;;;;;1999.90;999.90;;;18.00;98.70;;;;;;5033750;28;21227;-66
2022/05/13 08:47:22;;;;;;;1999.90;999.90;;;18.00;98.40;;;;;;5031018;28;20503;-66
2022/05/13 08:49:54;;;;;;;1999.90;999.90;;;18.00;98.10;;;;;;5032661;28;21281;-66
2022/05/13 08:55:25;;;;;;;1999.90;999.90;;;18.40;97.20;;;;;;5037411;28;20620;-66
2022/05/13 08:57:52;;;;;;;1999.90;999.90;;;18.50;96.50;;;;;;5040425;28;20879;-66
2022/05/13 09:00:24;;;;;;;1999.90;999.90;;;18.50;95.70;;;;;;5049223;28;20482;-66
2022/05/13 09:02:59;;;;;;;1999.90;999.90;;;18.50;95.60;;;;;;5045925;28;20440;-67
2022/05/13 09:05:28;;;;;;;1999.90;999.90;;;18.40;95.30;;;;;;5032366;28;20439;-66
2022/05/13 09:07:57;;;;;;;1999.90;999.90;;;17.90;95.60;;;;;;5033266;28;20472;-67
2022/05/13 09:10:24;;;;;;;1999.90;999.90;;;17.80;95.90;;;;;;5033565;28;20447;-66
2022/05/13 09:13:00;;;;;;;1999.90;999.90;;;17.80;96.60;;;;;;5033433;28;20443;-66
2022/05/13 09:15:38;;;;;;;1999.90;999.90;;;18.00;96.20;;;;;;5033489;28;20534;-64
2022/05/13 09:18:08;;;;;;;1999.90;999.90;;;18.20;95.10;;;;;;5033456;28;20478;-66
2022/05/13 09:20:45;;;;;;;1999.90;999.90;;;18.00;94.60;;;;;;5033257;28;20479;-66
2022/05/13 09:23:13;;;;;;;1999.90;999.90;;;18.00;94.20;;;;;;5033351;28;20541;-67
2022/05/13 09:25:56;;;;;;;1999.90;999.90;;;18.10;94.50;;;;;;5032241;28;20462;-65
2022/05/13 09:28:23;;;;;;;1999.90;999.90;;;18.40;94.10;;;;;;5041794;28;20466;-66
2022/05/13 09:30:53;;;;;;;1999.90;999.90;;;18.30;94.40;;;;;;5036680;28;20462;-67
2022/05/13 09:33:22;;;;;;;1999.90;999.90;;;18.20;94.30;;;;;;5041913;28;20447;-65
2022/05/13 09:35:51;;;;;;;1999.90;999.90;;;18.00;94.20;;;;;;5034391;28;20463;-67
2022/05/13 09:38:23;;;;;;;1999.90;999.90;;;18.00;94.70;;;;;;5032557;28;20486;-66
2022/05/13 09:40:58;;;;;;;1999.90;999.90;;;18.20;95.20;;;;;;5040946;28;20839;-65
2022/05/13 09:43:36;;;;;;;1999.90;999.90;;;18.80;95.20;;;;;;5030893;28;20469;-65
2022/05/13 09:46:05;;;;;;;1999.90;999.90;;;19.30;93.70;;;;;;5040956;28;20463;-64
2022/05/13 09:48:36;;;;;;;1999.90;999.90;;;19.20;93.50;;;;;;5028523;28;20513;-65
2022/05/13 09:51:22;;;;;;;1999.90;999.90;;;19.00;93.20;;;;;;5033611;28;20466;-64
2022/05/13 09:54:07;;;;;;;1999.90;999.90;;;19.00;93.80;;;;;;5025020;28;20585;-65
2022/05/13 09:56:40;;;;;;;1999.90;999.90;;;19.10;94.40;;;;;;5041182;28;20465;-65
2022/05/13 09:59:13;;;;;;;1999.90;999.90;;;19.10;93.30;;;;;;5039418;28;20529;-64
2022/05/13 10:01:40;;;;;;;1999.90;999.90;;;18.70;93.70;;;;;;5038254;28;20459;-65
2022/05/13 10:04:11;;;;;;;1999.90;999.90;;;18.30;94.10;;;;;;5030004;28;20458;-67
2022/05/13 10:06:39;;;;;;;1999.90;999.90;;;18.20;93.90;;;;;;5040517;28;20498;-66
2022/05/13 10:14:45;;;;;;;1999.90;999.90;;;18.30;95.10;;;;;;5012620;28;20824;-64
2022/05/13 10:17:15;;;;;;;1999.90;999.90;;;18.60;95.60;;;;;;5017141;28;20466;-65
2022/05/13 10:19:46;;;;;;;1999.90;999.90;;;18.70;95.30;;;;;;5032315;28;20990;-65
2022/05/13 10:22:25;;;;;;;1999.90;999.90;;;18.50;95.30;;;;;;5031733;28;20793;-64
2022/05/13 10:24:59;;;;;;;1999.90;999.90;;;19.00;95.50;;;;;;5032119;28;20989;-64
2022/05/13 10:27:31;;;;;;;1999.90;999.90;;;19.30;94.30;;;;;;5032169;28;20482;-65
2022/05/13 10:30:05;;;;;;;1999.90;999.90;;;19.40;94.10;;;;;;5032227;28;20553;-64
2022/05/13 10:32:43;;;;;;;1999.90;999.90;;;19.10;94.50;;;;;;5032092;28;20448;-64
2022/05/13 10:35:15;;;;;;;1999.90;999.90;;;19.10;95.30;;;;;;5032326;28;20497;-64
2022/05/13 10:38:06;;;;;;;1999.90;999.90;;;19.20;94.20;;;;;;5031466;28;21159;-65
2022/05/13 10:40:38;;;;;;;1999.90;999.90;;;18.90;93.60;;;;;;5032026;28;20482;-65
2022/05/13 10:43:11;;;;;;;1999.90;999.90;;;19.00;93.70;;;;;;5031561;28;20994;-65
2022/05/13 10:45:41;;;;;;;1999.90;999.90;;;19.10;94.00;;;;;;5031899;28;20485;-64
2022/05/13 10:48:27;;;;;;;1999.90;999.90;;;18.90;93.10;;;;;;5032850;28;20483;-66
2022/05/13 10:51:12;;;;;;;1999.90;999.90;;;18.60;93.00;;;;;;5032009;28;20506;-69
2022/05/13 10:53:56;;;;;;;1999.90;999.90;;;18.30;93.20;;;;;;5032695;28;20461;-67
2022/05/13 10:56:28;;;;;;;1999.90;999.90;;;18.30;93.30;;;;;;5039539;28;20449;-66
2022/05/13 10:59:04;;;;;;;1999.90;999.90;;;18.60;93.90;;;;;;5037822;28;20512;-66
2022/05/13 11:01:44;;;;;;;1999.90;999.90;;;19.20;92.90;;;;;;5033305;28;20889;-66
2022/05/13 11:04:21;;;;;;;1999.90;999.90;;;19.50;91.70;;;;;;5039415;28;20862;-67
2022/05/13 11:07:05;;;;;;;1999.90;999.90;;;19.60;92.10;;;;;;5032191;28;20470;-66
2022/05/13 11:09:44;;;;;;;1999.90;999.90;;;19.60;91.20;;;;;;5012247;28;20483;-66
2022/05/13 11:12:19;;;;;;;1999.90;999.90;;;19.20;90.80;;;;;;5011677;28;20490;-65
2022/05/13 11:14:56;;;;;;;1999.90;999.90;;;19.10;90.40;;;;;;5012304;28;20436;-66
2022/05/13 11:17:34;;;;;;;1999.90;999.90;;;18.90;90.60;;;;;;5015243;28;20470;-66
2022/05/13 11:20:09;;;;;;;1999.90;999.90;;;18.70;91.00;;;;;;5031900;28;20462;-66
2022/05/13 11:22:39;;;;;;;1999.90;999.90;;;18.70;91.50;;;;;;5031335;28;20438;-66
2022/05/13 11:28:18;;;;;;;1999.90;999.90;;;19.20;92.00;;;;;;5029240;28;20884;-67
2022/05/13 11:30:52;;;;;;;1999.90;999.90;;;19.50;91.20;;;;;;5035247;28;20450;-66
2022/05/13 11:33:27;;;;;;;1999.90;999.90;;;19.40;90.70;;;;;;5029139;28;20467;-68
2022/05/13 11:36:16;;;;;;;1999.90;999.90;;;19.20;90.80;;;;;;5036046;28;20985;-65
2022/05/13 11:39:05;;;;;;;1999.90;999.90;;;19.30;90.80;;;;;;5027974;28;22344;-66
2022/05/13 11:41:40;;;;;;;1999.90;999.90;;;19.10;91.20;;;;;;5039209;28;20512;-65
2022/05/13 11:44:10;;;;;;;1999.90;999.90;;;19.20;91.40;;;;;;5040496;28;20469;-66
2022/05/13 11:46:58;;;;;;;1999.90;999.90;;;18.90;91.80;;;;;;5024759;28;20526;-65
2022/05/13 11:49:29;;;;;;;1999.90;999.90;;;18.80;92.40;;;;;;5038778;28;20466;-67
2022/05/13 11:51:57;;;;;;;1999.90;999.90;;;19.10;93.20;;;;;;5045363;28;20438;-66
2022/05/13 11:54:26;;;;;;;1999.90;999.90;;;19.40;91.90;;;;;;5034824;28;20459;-67
2022/05/13 11:57:24;;;;;;;1999.90;999.90;;;19.50;91.70;;;;;;5035871;28;20482;-67
2022/05/13 11:59:54;;;;;;;1999.90;999.90;;;19.90;91.50;;;;;;5031805;28;20474;-66
2022/05/13 12:02:49;;;;;;;1999.90;999.90;;;20.20;91.00;;;;;;5036562;28;20520;-67
2022/05/13 12:05:34;;;;;;;1999.90;999.90;;;19.90;89.90;;;;;;5035347;28;20467;-66
2022/05/13 12:08:16;;;;;;;1999.90;999.90;;;19.70;90.50;;;;;;5042823;28;20546;-66
2022/05/13 12:10:52;;;;;;;1999.90;999.90;;;19.70;91.00;;;;;;5041697;28;20454;-66
2022/05/13 12:13:33;;;;;;;1999.90;999.90;;;19.90;90.80;;;;;;5039982;28;21028;-66
2022/05/13 12:16:16;;;;;;;1999.90;999.90;;;19.90;89.90;;;;;;5033538;28;20500;-67
2022/05/13 12:18:48;;;;;;;1999.90;999.90;;;19.90;90.30;;;;;;5033230;28;20478;-67
2022/05/13 12:21:25;;;;;;;1999.90;999.90;;;20.10;90.10;;;;;;5035758;28;20479;-65
2022/05/13 12:23:56;;;;;;;1999.90;999.90;;;20.40;89.20;;;;;;5036350;28;20467;-67
2022/05/13 12:26:25;;;;;;;1999.90;999.90;;;20.30;89.50;;;;;;5038775;28;20888;-67
2022/05/13 12:29:17;;;;;;;1999.90;999.90;;;20.70;89.40;;;;;;5042892;28;20462;-70
2022/05/13 12:32:05;;;;;;;1999.90;999.90;;;20.80;89.20;;;;;;5020243;28;20842;-67
2022/05/13 12:37:36;;;;;;;1999.90;999.90;;;20.00;90.70;;;;;;5035232;28;21040;-67
2022/05/13 12:40:18;;;;;;;1999.90;999.90;;;19.90;91.20;;;;;;5036154;28;20471;-66
2022/05/13 12:42:56;;;;;;;1999.90;999.90;;;19.90;91.40;;;;;;5033048;28;20513;-66
2022/05/13 12:45:45;;;;;;;1999.90;999.90;;;19.60;90.90;;;;;;5036494;28;20466;-66
2022/05/13 12:48:16;;;;;;;1999.90;999.90;;;19.30;91.20;;;;;;5043285;28;20501;-67
2022/05/13 12:50:46;;;;;;;1999.90;999.90;;;19.30;91.70;;;;;;5033084;28;20464;-66